sensor_id;sensor_type;location;lat;lon;timestamp;temperature;humidity
52963;DHT22;38827;53.024;6.596;2023-07-20T01:32:29;14.80;80.70
52963;DHT22;38827;53.024;6.596;2023-07-20T01:35:50;14.80;81.00
52963;DHT22;38827;53.024;6.596;2023-07-20T01:41:43;14.70;81.40
52963;DHT22;38827;53.024;6.596;2023-07-20T02:25:51;14.00;83.70
52963;DHT22;38827;53.024;6.596;2023-07-20T02:53:21;13.60;84.20
52963;DHT22;38827;53.024;6.596;2023-07-20T02:59:47;13.50;84.40
52963;DHT22;38827;53.024;6.596;2023-07-20T03:02:18;13.40;84.20
52963;DHT22;38827;53.024;6.596;2023-07-20T03:04:44;13.40;84.40
52963;DHT22;38827;53.024;6.596;2023-07-20T03:11:09;13.30;84.20
52963;DHT22;38827;53.024;6.596;2023-07-20T03:32:16;13.10;84.70
52963;DHT22;38827;53.024;6.596;2023-07-20T03:34:54;13.10;84.30
52963;DHT22;38827;53.024;6.596;2023-07-20T03:44:48;13.00;84.30
52963;DHT22;38827;53.024;6.596;2023-07-20T03:47:36;12.90;84.50
52963;DHT22;38827;53.024;6.596;2023-07-20T03:50:05;12.90;84.30
52963;DHT22;38827;53.024;6.596;2023-07-20T03:52:37;12.90;84.50
52963;DHT22;38827;53.024;6.596;2023-07-20T04:06:41;12.80;84.30
52963;DHT22;38827;53.024;6.596;2023-07-20T04:20:55;12.80;83.90
52963;DHT22;38827;53.024;6.596;2023-07-20T04:50:07;13.40;82.70
52963;DHT22;38827;53.024;6.596;2023-07-20T04:56:54;13.50;82.00
52963;DHT22;38827;53.024;6.596;2023-07-20T05:08:28;13.90;80.60
52963;DHT22;38827;53.024;6.596;2023-07-20T05:11:22;14.00;80.60
52963;DHT22;38827;53.024;6.596;2023-07-20T05:35:38;14.50;78.80
52963;DHT22;38827;53.024;6.596;2023-07-20T05:38:19;14.50;78.70
52963;DHT22;38827;53.024;6.596;2023-07-20T06:49:59;16.60;73.90
52963;DHT22;38827;53.024;6.596;2023-07-20T07:43:45;18.80;62.30
52963;DHT22;38827;53.024;6.596;2023-07-20T07:46:43;19.10;60.60
52963;DHT22;38827;53.024;6.596;2023-07-20T07:49:11;19.20;59.80
52963;DHT22;38827;53.024;6.596;2023-07-20T07:55:15;19.30;59.40
52963;DHT22;38827;53.024;6.596;2023-07-20T08:12:55;20.00;55.60
52963;DHT22;38827;53.024;6.596;2023-07-20T08:16:07;20.10;56.00
52963;DHT22;38827;53.024;6.596;2023-07-20T08:28:03;21.00;52.20
52963;DHT22;38827;53.024;6.596;2023-07-20T08:30:56;21.10;52.90
52963;DHT22;38827;53.024;6.596;2023-07-20T08:44:22;21.80;51.20
52963;DHT22;38827;53.024;6.596;2023-07-20T08:57:26;21.80;46.20
52963;DHT22;38827;53.024;6.596;2023-07-20T09:07:43;22.50;46.00
52963;DHT22;38827;53.024;6.596;2023-07-20T09:24:39;22.50;48.20
52963;DHT22;38827;53.024;6.596;2023-07-20T09:28:06;23.00;47.80
52963;DHT22;38827;53.024;6.596;2023-07-20T09:49:08;23.90;44.70
52963;DHT22;38827;53.024;6.596;2023-07-20T09:51:45;24.30;44.60
52963;DHT22;38827;53.024;6.596;2023-07-20T09:54:11;24.40;43.00
52963;DHT22;38827;53.024;6.596;2023-07-20T09:56:42;24.60;42.50
52963;DHT22;38827;53.024;6.596;2023-07-20T09:59:27;24.60;42.40
52963;DHT22;38827;53.024;6.596;2023-07-20T10:02:16;24.40;40.70
52963;DHT22;38827;53.024;6.596;2023-07-20T10:05:59;24.00;42.80
52963;DHT22;38827;53.024;6.596;2023-07-20T10:10:04;23.90;44.50
52963;DHT22;38827;53.024;6.596;2023-07-20T10:13:18;24.30;44.00
52963;DHT22;38827;53.024;6.596;2023-07-20T10:16:06;24.70;44.00
52963;DHT22;38827;53.024;6.596;2023-07-20T10:18:50;25.00;42.90
52963;DHT22;38827;53.024;6.596;2023-07-20T10:35:57;26.70;39.70
52963;DHT22;38827;53.024;6.596;2023-07-20T10:43:44;27.50;37.70
52963;DHT22;38827;53.024;6.596;2023-07-20T10:46:13;27.20;37.50
52963;DHT22;38827;53.024;6.596;2023-07-20T10:48:59;27.10;38.10
52963;DHT22;38827;53.024;6.596;2023-07-20T10:51:25;27.00;37.60
52963;DHT22;38827;53.024;6.596;2023-07-20T10:53:51;27.00;38.00
52963;DHT22;38827;53.024;6.596;2023-07-20T10:56:23;27.10;37.70
52963;DHT22;38827;53.024;6.596;2023-07-20T10:58:56;27.30;37.40
52963;DHT22;38827;53.024;6.596;2023-07-20T11:01:30;27.30;36.80
52963;DHT22;38827;53.024;6.596;2023-07-20T11:03:59;27.30;37.00
52963;DHT22;38827;53.024;6.596;2023-07-20T11:06:29;27.30;37.10
52963;DHT22;38827;53.024;6.596;2023-07-20T11:08:55;27.30;37.50
52963;DHT22;38827;53.024;6.596;2023-07-20T11:11:22;27.10;38.60
52963;DHT22;38827;53.024;6.596;2023-07-20T11:14:00;26.90;38.80
52963;DHT22;38827;53.024;6.596;2023-07-20T11:16:43;26.70;38.60
52963;DHT22;38827;53.024;6.596;2023-07-20T11:21:45;26.10;39.50
52963;DHT22;38827;53.024;6.596;2023-07-20T11:24:34;25.80;39.90
52963;DHT22;38827;53.024;6.596;2023-07-20T11:27:12;25.60;40.20
52963;DHT22;38827;53.024;6.596;2023-07-20T11:29:52;25.40;40.50
52963;DHT22;38827;53.024;6.596;2023-07-20T11:42:22;24.40;40.90
52963;DHT22;38827;53.024;6.596;2023-07-20T11:48:36;24.10;40.90
52963;DHT22;38827;53.024;6.596;2023-07-20T11:51:04;23.90;41.60
52963;DHT22;38827;53.024;6.596;2023-07-20T11:53:30;24.10;42.30
52963;DHT22;38827;53.024;6.596;2023-07-20T11:55:58;24.80;41.20
52963;DHT22;38827;53.024;6.596;2023-07-20T11:58:24;25.70;40.10
52963;DHT22;38827;53.024;6.596;2023-07-20T12:00:50;26.30;39.50
52963;DHT22;38827;53.024;6.596;2023-07-20T12:03:16;26.70;38.70
52963;DHT22;38827;53.024;6.596;2023-07-20T12:05:42;26.70;38.80
52963;DHT22;38827;53.024;6.596;2023-07-20T12:08:07;26.50;38.80
52963;DHT22;38827;53.024;6.596;2023-07-20T12:10:33;26.20;38.90
52963;DHT22;38827;53.024;6.596;2023-07-20T12:13:03;26.00;38.90
52963;DHT22;38827;53.024;6.596;2023-07-20T12:15:29;25.70;39.20
52963;DHT22;38827;53.024;6.596;2023-07-20T12:17:58;25.60;39.50
52963;DHT22;38827;53.024;6.596;2023-07-20T12:20:37;25.50;39.40
52963;DHT22;38827;53.024;6.596;2023-07-20T12:23:08;25.40;39.70
52963;DHT22;38827;53.024;6.596;2023-07-20T12:25:44;25.00;40.00
52963;DHT22;38827;53.024;6.596;2023-07-20T12:28:18;24.60;40.70
52963;DHT22;38827;53.024;6.596;2023-07-20T12:30:45;24.30;41.60
52963;DHT22;38827;53.024;6.596;2023-07-20T12:33:12;23.90;42.50
52963;DHT22;38827;53.024;6.596;2023-07-20T12:35:40;23.50;43.10
52963;DHT22;38827;53.024;6.596;2023-07-20T12:43:17;23.20;44.40
52963;DHT22;38827;53.024;6.596;2023-07-20T12:45:43;23.10;44.60
52963;DHT22;38827;53.024;6.596;2023-07-20T12:48:08;23.10;44.60
52963;DHT22;38827;53.024;6.596;2023-07-20T12:50:34;23.30;44.40
52963;DHT22;38827;53.024;6.596;2023-07-20T12:53:01;23.50;44.10
52963;DHT22;38827;53.024;6.596;2023-07-20T12:55:29;23.70;43.30
52963;DHT22;38827;53.024;6.596;2023-07-20T12:57:55;23.70;43.20
52963;DHT22;38827;53.024;6.596;2023-07-20T13:00:21;23.70;43.20
52963;DHT22;38827;53.024;6.596;2023-07-20T13:02:49;23.80;43.50
52963;DHT22;38827;53.024;6.596;2023-07-20T13:05:14;24.00;44.00
52963;DHT22;38827;53.024;6.596;2023-07-20T13:07:41;24.20;43.00
52963;DHT22;38827;53.024;6.596;2023-07-20T13:10:07;24.30;42.20
52963;DHT22;38827;53.024;6.596;2023-07-20T13:12:34;24.30;41.90
52963;DHT22;38827;53.024;6.596;2023-07-20T13:15:06;24.30;41.30
52963;DHT22;38827;53.024;6.596;2023-07-20T13:17:33;24.20;40.60
52963;DHT22;38827;53.024;6.596;2023-07-20T13:19:58;24.00;40.70
52963;DHT22;38827;53.024;6.596;2023-07-20T13:22:24;23.70;41.20
52963;DHT22;38827;53.024;6.596;2023-07-20T13:24:50;23.40;41.80
52963;DHT22;38827;53.024;6.596;2023-07-20T13:27:16;23.30;42.80
52963;DHT22;38827;53.024;6.596;2023-07-20T13:29:43;23.30;43.90
52963;DHT22;38827;53.024;6.596;2023-07-20T13:32:09;23.20;44.40
52963;DHT22;38827;53.024;6.596;2023-07-20T13:34:35;23.00;45.00
52963;DHT22;38827;53.024;6.596;2023-07-20T13:37:02;22.80;45.60
52963;DHT22;38827;53.024;6.596;2023-07-20T13:39:27;22.80;45.90
52963;DHT22;38827;53.024;6.596;2023-07-20T13:41:54;22.80;45.90
52963;DHT22;38827;53.024;6.596;2023-07-20T13:44:20;22.80;45.80
52963;DHT22;38827;53.024;6.596;2023-07-20T13:46:47;22.70;45.90
52963;DHT22;38827;53.024;6.596;2023-07-20T13:49:13;22.70;46.20
52963;DHT22;38827;53.024;6.596;2023-07-20T13:51:40;22.70;46.20
52963;DHT22;38827;53.024;6.596;2023-07-20T14:04:41;22.50;51.70
52963;DHT22;38827;53.024;6.596;2023-07-20T14:11:18;22.30;51.30
52963;DHT22;38827;53.024;6.596;2023-07-20T14:13:43;22.30;50.30
52963;DHT22;38827;53.024;6.596;2023-07-20T14:16:09;22.20;51.20
52963;DHT22;38827;53.024;6.596;2023-07-20T14:18:38;22.10;51.70
52963;DHT22;38827;53.024;6.596;2023-07-20T14:21:08;22.10;51.70
52963;DHT22;38827;53.024;6.596;2023-07-20T14:23:33;22.20;51.00
52963;DHT22;38827;53.024;6.596;2023-07-20T14:25:59;22.20;50.30
52963;DHT22;38827;53.024;6.596;2023-07-20T14:28:25;22.30;49.60
52963;DHT22;38827;53.024;6.596;2023-07-20T14:30:51;22.30;49.30
52963;DHT22;38827;53.024;6.596;2023-07-20T14:33:17;22.40;48.70
52963;DHT22;38827;53.024;6.596;2023-07-20T14:35:42;22.50;48.40
52963;DHT22;38827;53.024;6.596;2023-07-20T14:38:09;22.70;47.40
52963;DHT22;38827;53.024;6.596;2023-07-20T14:40:35;22.90;46.60
52963;DHT22;38827;53.024;6.596;2023-07-20T14:43:01;23.10;46.50
52963;DHT22;38827;53.024;6.596;2023-07-20T14:45:27;23.20;46.60
52963;DHT22;38827;53.024;6.596;2023-07-20T14:47:53;23.20;46.70
52963;DHT22;38827;53.024;6.596;2023-07-20T14:50:19;23.20;46.40
52963;DHT22;38827;53.024;6.596;2023-07-20T14:57:01;23.00;46.80
52963;DHT22;38827;53.024;6.596;2023-07-20T15:10:19;22.40;47.40
52963;DHT22;38827;53.024;6.596;2023-07-20T15:13:07;22.50;47.20
52963;DHT22;38827;53.024;6.596;2023-07-20T15:19:31;22.90;46.60
52963;DHT22;38827;53.024;6.596;2023-07-20T15:21:57;23.00;46.70
52963;DHT22;38827;53.024;6.596;2023-07-20T15:24:23;23.10;46.50
52963;DHT22;38827;53.024;6.596;2023-07-20T15:26:49;23.20;46.50
52963;DHT22;38827;53.024;6.596;2023-07-20T15:29:15;23.20;46.10
52963;DHT22;38827;53.024;6.596;2023-07-20T15:31:42;23.20;45.70
52963;DHT22;38827;53.024;6.596;2023-07-20T15:36:53;23.30;45.60
52963;DHT22;38827;53.024;6.596;2023-07-20T15:39:20;23.30;46.00
52963;DHT22;38827;53.024;6.596;2023-07-20T15:42:18;23.30;46.30
52963;DHT22;38827;53.024;6.596;2023-07-20T15:55:52;22.70;47.00
52963;DHT22;38827;53.024;6.596;2023-07-20T15:58:56;22.60;47.30
52963;DHT22;38827;53.024;6.596;2023-07-20T16:14:57;22.60;46.90
52963;DHT22;38827;53.024;6.596;2023-07-20T16:20:54;22.50;47.20
52963;DHT22;38827;53.024;6.596;2023-07-20T16:24:16;22.50;47.40
52963;DHT22;38827;53.024;6.596;2023-07-20T16:41:48;22.50;47.20
52963;DHT22;38827;53.024;6.596;2023-07-20T16:47:37;22.40;47.30
52963;DHT22;38827;53.024;6.596;2023-07-20T16:50:03;22.40;47.10
52963;DHT22;38827;53.024;6.596;2023-07-20T16:52:54;22.30;47.20
52963;DHT22;38827;53.024;6.596;2023-07-20T16:55:39;22.20;47.60
52963;DHT22;38827;53.024;6.596;2023-07-20T16:58:06;22.20;47.60
52963;DHT22;38827;53.024;6.596;2023-07-20T17:00:31;22.10;48.00
52963;DHT22;38827;53.024;6.596;2023-07-20T17:02:59;22.10;48.20
52963;DHT22;38827;53.024;6.596;2023-07-20T17:05:27;22.00;48.10
52963;DHT22;38827;53.024;6.596;2023-07-20T17:07:54;21.90;48.30
52963;DHT22;38827;53.024;6.596;2023-07-20T17:10:22;21.80;48.40
52963;DHT22;38827;53.024;6.596;2023-07-20T17:12:48;21.70;48.40
52963;DHT22;38827;53.024;6.596;2023-07-20T17:15:15;21.70;48.00
52963;DHT22;38827;53.024;6.596;2023-07-20T17:17:41;21.60;48.30
52963;DHT22;38827;53.024;6.596;2023-07-20T17:20:08;21.60;48.50
52963;DHT22;38827;53.024;6.596;2023-07-20T17:22:39;21.50;48.80
52963;DHT22;38827;53.024;6.596;2023-07-20T17:25:05;21.50;49.10
52963;DHT22;38827;53.024;6.596;2023-07-20T17:27:31;21.50;48.80
52963;DHT22;38827;53.024;6.596;2023-07-20T17:30:00;21.50;48.90
52963;DHT22;38827;53.024;6.596;2023-07-20T17:32:26;21.50;49.10
52963;DHT22;38827;53.024;6.596;2023-07-20T17:34:52;21.50;48.70
52963;DHT22;38827;53.024;6.596;2023-07-20T17:37:18;21.40;48.80
52963;DHT22;38827;53.024;6.596;2023-07-20T17:39:46;21.40;48.60
52963;DHT22;38827;53.024;6.596;2023-07-20T17:42:12;21.40;48.60
52963;DHT22;38827;53.024;6.596;2023-07-20T17:45:03;21.40;48.50
52963;DHT22;38827;53.024;6.596;2023-07-20T17:47:30;21.40;48.50
52963;DHT22;38827;53.024;6.596;2023-07-20T17:49:56;21.30;48.60
52963;DHT22;38827;53.024;6.596;2023-07-20T17:52:24;21.30;48.70
52963;DHT22;38827;53.024;6.596;2023-07-20T17:54:56;21.30;48.80
52963;DHT22;38827;53.024;6.596;2023-07-20T17:57:22;21.30;48.90
52963;DHT22;38827;53.024;6.596;2023-07-20T17:59:51;21.20;49.00
52963;DHT22;38827;53.024;6.596;2023-07-20T18:02:21;21.10;49.10
52963;DHT22;38827;53.024;6.596;2023-07-20T18:04:52;21.10;49.10
52963;DHT22;38827;53.024;6.596;2023-07-20T18:07:18;21.00;49.20
52963;DHT22;38827;53.024;6.596;2023-07-20T18:09:43;21.00;49.30
52963;DHT22;38827;53.024;6.596;2023-07-20T18:12:09;21.00;49.50
52963;DHT22;38827;53.024;6.596;2023-07-20T18:14:36;20.90;49.60
52963;DHT22;38827;53.024;6.596;2023-07-20T18:17:05;20.90;49.80
52963;DHT22;38827;53.024;6.596;2023-07-20T18:19:37;20.90;50.00
52963;DHT22;38827;53.024;6.596;2023-07-20T18:22:03;20.90;50.20
52963;DHT22;38827;53.024;6.596;2023-07-20T18:24:29;20.90;50.30
52963;DHT22;38827;53.024;6.596;2023-07-20T18:29:31;20.80;50.40
52963;DHT22;38827;53.024;6.596;2023-07-20T18:34:51;20.50;50.40
52963;DHT22;38827;53.024;6.596;2023-07-20T18:37:47;20.40;50.60
52963;DHT22;38827;53.024;6.596;2023-07-20T18:40:57;20.30;50.90
52963;DHT22;38827;53.024;6.596;2023-07-20T18:46:44;20.10;51.60
52963;DHT22;38827;53.024;6.596;2023-07-20T18:49:10;20.00;51.80
52963;DHT22;38827;53.024;6.596;2023-07-20T18:51:36;19.90;52.10
52963;DHT22;38827;53.024;6.596;2023-07-20T18:54:02;19.80;52.20
52963;DHT22;38827;53.024;6.596;2023-07-20T18:56:29;19.80;52.40
52963;DHT22;38827;53.024;6.596;2023-07-20T18:58:54;19.70;52.60
52963;DHT22;38827;53.024;6.596;2023-07-20T19:01:22;19.50;52.60
52963;DHT22;38827;53.024;6.596;2023-07-20T19:03:48;19.50;53.20
52963;DHT22;38827;53.024;6.596;2023-07-20T19:06:14;19.40;53.40
52963;DHT22;38827;53.024;6.596;2023-07-20T19:08:40;19.30;53.70
52963;DHT22;38827;53.024;6.596;2023-07-20T19:11:07;19.30;54.00
52963;DHT22;38827;53.024;6.596;2023-07-20T19:13:38;19.20;54.30
52963;DHT22;38827;53.024;6.596;2023-07-20T19:16:12;19.10;54.50
52963;DHT22;38827;53.024;6.596;2023-07-20T19:18:38;19.10;54.80
52963;DHT22;38827;53.024;6.596;2023-07-20T19:21:06;19.00;54.90
52963;DHT22;38827;53.024;6.596;2023-07-20T19:23:33;18.90;55.10
52963;DHT22;38827;53.024;6.596;2023-07-20T19:26:07;18.90;55.60
52963;DHT22;38827;53.024;6.596;2023-07-20T19:28:34;18.80;55.50
52963;DHT22;38827;53.024;6.596;2023-07-20T19:31:06;18.80;55.90
52963;DHT22;38827;53.024;6.596;2023-07-20T19:33:36;18.70;56.20
52963;DHT22;38827;53.024;6.596;2023-07-20T19:47:46;18.40;57.50
52963;DHT22;38827;53.024;6.596;2023-07-20T20:01:42;18.20;58.30
52963;DHT22;38827;53.024;6.596;2023-07-20T20:04:07;18.20;58.30
52963;DHT22;38827;53.024;6.596;2023-07-20T20:07:12;18.10;58.80
52963;DHT22;38827;53.024;6.596;2023-07-20T20:13:36;18.00;59.20
52963;DHT22;38827;53.024;6.596;2023-07-20T20:16:21;18.00;59.60
52963;DHT22;38827;53.024;6.596;2023-07-20T20:22:26;17.90;60.00
52963;DHT22;38827;53.024;6.596;2023-07-20T20:25:17;17.80;60.30
52963;DHT22;38827;53.024;6.596;2023-07-20T20:27:52;17.70;60.60
52963;DHT22;38827;53.024;6.596;2023-07-20T20:34:02;17.70;60.80
52963;DHT22;38827;53.024;6.596;2023-07-20T20:36:46;17.60;61.00
52963;DHT22;38827;53.024;6.596;2023-07-20T20:39:13;17.60;60.80
52963;DHT22;38827;53.024;6.596;2023-07-20T20:41:39;17.60;61.10
52963;DHT22;38827;53.024;6.596;2023-07-20T20:44:14;17.50;61.30
52963;DHT22;38827;53.024;6.596;2023-07-20T20:46:44;17.50;61.50
52963;DHT22;38827;53.024;6.596;2023-07-20T20:49:10;17.50;61.60
52963;DHT22;38827;53.024;6.596;2023-07-20T20:51:36;17.40;61.90
52963;DHT22;38827;53.024;6.596;2023-07-20T20:54:02;17.40;62.20
52963;DHT22;38827;53.024;6.596;2023-07-20T20:56:29;17.30;62.30
52963;DHT22;38827;53.024;6.596;2023-07-20T20:58:55;17.30;62.40
52963;DHT22;38827;53.024;6.596;2023-07-20T21:01:21;17.20;62.60
52963;DHT22;38827;53.024;6.596;2023-07-20T21:03:48;17.20;62.90
52963;DHT22;38827;53.024;6.596;2023-07-20T21:06:14;17.10;63.20
52963;DHT22;38827;53.024;6.596;2023-07-20T21:08:40;17.00;63.30
52963;DHT22;38827;53.024;6.596;2023-07-20T21:11:07;17.00;63.50
52963;DHT22;38827;53.024;6.596;2023-07-20T21:13:33;16.90;63.90
52963;DHT22;38827;53.024;6.596;2023-07-20T21:15:59;16.90;63.90
52963;DHT22;38827;53.024;6.596;2023-07-20T21:18:25;16.90;64.10
52963;DHT22;38827;53.024;6.596;2023-07-20T21:20:56;16.80;64.20
52963;DHT22;38827;53.024;6.596;2023-07-20T21:23:22;16.80;64.30
52963;DHT22;38827;53.024;6.596;2023-07-20T21:25:48;16.70;64.60
52963;DHT22;38827;53.024;6.596;2023-07-20T21:28:14;16.70;64.90
52963;DHT22;38827;53.024;6.596;2023-07-20T21:30:40;16.70;65.10
52963;DHT22;38827;53.024;6.596;2023-07-20T21:33:09;16.70;65.40
52963;DHT22;38827;53.024;6.596;2023-07-20T21:35:42;16.60;65.60
52963;DHT22;38827;53.024;6.596;2023-07-20T21:38:09;16.60;65.90
52963;DHT22;38827;53.024;6.596;2023-07-20T21:40:38;16.60;66.20
52963;DHT22;38827;53.024;6.596;2023-07-20T21:43:03;16.60;66.60
52963;DHT22;38827;53.024;6.596;2023-07-20T21:45:29;16.50;66.90
52963;DHT22;38827;53.024;6.596;2023-07-20T21:47:55;16.50;67.00
52963;DHT22;38827;53.024;6.596;2023-07-20T21:50:20;16.50;67.40
52963;DHT22;38827;53.024;6.596;2023-07-20T21:52:46;16.50;67.50
52963;DHT22;38827;53.024;6.596;2023-07-20T21:55:12;16.50;67.80
52963;DHT22;38827;53.024;6.596;2023-07-20T21:57:38;16.40;68.00
52963;DHT22;38827;53.024;6.596;2023-07-20T22:00:05;16.40;67.70
52963;DHT22;38827;53.024;6.596;2023-07-20T22:02:32;16.30;67.70
52963;DHT22;38827;53.024;6.596;2023-07-20T22:04:58;16.20;67.70
52963;DHT22;38827;53.024;6.596;2023-07-20T22:07:23;16.20;67.90
52963;DHT22;38827;53.024;6.596;2023-07-20T22:09:52;16.10;68.10
52963;DHT22;38827;53.024;6.596;2023-07-20T22:12:18;16.10;68.10
52963;DHT22;38827;53.024;6.596;2023-07-20T22:14:43;16.10;67.90
52963;DHT22;38827;53.024;6.596;2023-07-20T22:17:10;16.10;67.70
52963;DHT22;38827;53.024;6.596;2023-07-20T22:19:40;16.10;67.80
52963;DHT22;38827;53.024;6.596;2023-07-20T22:22:06;16.10;68.00
52963;DHT22;38827;53.024;6.596;2023-07-20T22:24:32;16.10;68.10
52963;DHT22;38827;53.024;6.596;2023-07-20T22:26:58;16.10;68.30
52963;DHT22;38827;53.024;6.596;2023-07-20T22:29:24;16.10;68.30
52963;DHT22;38827;53.024;6.596;2023-07-20T22:31:51;16.10;68.30
52963;DHT22;38827;53.024;6.596;2023-07-20T22:34:17;16.10;68.50
52963;DHT22;38827;53.024;6.596;2023-07-20T22:36:43;16.00;68.60
52963;DHT22;38827;53.024;6.596;2023-07-20T22:39:09;16.00;68.70
52963;DHT22;38827;53.024;6.596;2023-07-20T22:41:35;15.90;68.80
52963;DHT22;38827;53.024;6.596;2023-07-20T22:44:00;15.90;68.90
52963;DHT22;38827;53.024;6.596;2023-07-20T22:46:26;15.80;69.20
52963;DHT22;38827;53.024;6.596;2023-07-20T22:48:52;15.80;69.50
52963;DHT22;38827;53.024;6.596;2023-07-20T22:51:20;15.80;69.60
52963;DHT22;38827;53.024;6.596;2023-07-20T22:53:46;15.70;69.80
52963;DHT22;38827;53.024;6.596;2023-07-20T22:56:12;15.60;69.90
52963;DHT22;38827;53.024;6.596;2023-07-20T22:58:37;15.60;70.20
52963;DHT22;38827;53.024;6.596;2023-07-20T23:01:08;15.50;70.40
52963;DHT22;38827;53.024;6.596;2023-07-20T23:03:36;15.50;70.70
52963;DHT22;38827;53.024;6.596;2023-07-20T23:06:02;15.40;70.80
52963;DHT22;38827;53.024;6.596;2023-07-20T23:08:30;15.40;71.00
52963;DHT22;38827;53.024;6.596;2023-07-20T23:10:57;15.40;71.30
52963;DHT22;38827;53.024;6.596;2023-07-20T23:13:23;15.30;71.40
52963;DHT22;38827;53.024;6.596;2023-07-20T23:21:49;15.20;71.80
52963;DHT22;38827;53.024;6.596;2023-07-20T23:24:24;15.20;71.80
52963;DHT22;38827;53.024;6.596;2023-07-20T23:27:25;15.10;71.50
52963;DHT22;38827;53.024;6.596;2023-07-20T23:29:51;15.10;71.50
52963;DHT22;38827;53.024;6.596;2023-07-20T23:32:46;15.00;71.90
52963;DHT22;38827;53.024;6.596;2023-07-20T23:35:12;14.90;72.00
52963;DHT22;38827;53.024;6.596;2023-07-20T23:37:39;14.80;72.30
52963;DHT22;38827;53.024;6.596;2023-07-20T23:40:06;14.80;72.60
52963;DHT22;38827;53.024;6.596;2023-07-20T23:43:12;14.80;72.70
52963;DHT22;38827;53.024;6.596;2023-07-20T23:46:06;14.70;72.60
52963;DHT22;38827;53.024;6.596;2023-07-20T23:48:35;14.70;72.80
52963;DHT22;38827;53.024;6.596;2023-07-20T23:51:11;14.60;73.20
52963;DHT22;38827;53.024;6.596;2023-07-20T23:53:40;14.60;73.30
52963;DHT22;38827;53.024;6.596;2023-07-20T23:56:06;14.50;73.30
52963;DHT22;38827;53.024;6.596;2023-07-20T23:58:36;14.50;73.30
